sensor_id;sensor_type;location;lat;lon;timestamp;P1;durP1;ratioP1;P2;durP2;ratioP2
16957;SDS011;8595;52.542;11.974;2022-07-29T00:02:03;4.13;;;3.17;;
16957;SDS011;8595;52.542;11.974;2022-07-29T00:04:31;8.38;;;3.50;;
16957;SDS011;8595;52.542;11.974;2022-07-29T00:07:00;8.68;;;2.97;;
16957;SDS011;8595;52.542;11.974;2022-07-29T00:09:27;8.63;;;3.00;;
16957;SDS011;8595;52.542;11.974;2022-07-29T00:11:53;6.32;;;3.28;;
16957;SDS011;8595;52.542;11.974;2022-07-29T00:14:23;5.80;;;2.83;;
16957;SDS011;8595;52.542;11.974;2022-07-29T00:16:49;4.78;;;3.13;;
16957;SDS011;8595;52.542;11.974;2022-07-29T00:19:16;6.20;;;3.35;;
16957;SDS011;8595;52.542;11.974;2022-07-29T00:21:44;7.63;;;3.15;;
16957;SDS011;8595;52.542;11.974;2022-07-29T00:24:11;6.18;;;3.00;;
16957;SDS011;8595;52.542;11.974;2022-07-29T00:26:37;14.43;;;3.95;;
16957;SDS011;8595;52.542;11.974;2022-07-29T00:29:04;7.75;;;3.47;;
16957;SDS011;8595;52.542;11.974;2022-07-29T00:31:31;8.13;;;3.30;;
16957;SDS011;8595;52.542;11.974;2022-07-29T00:33:57;7.07;;;3.58;;
16957;SDS011;8595;52.542;11.974;2022-07-29T00:36:24;7.20;;;3.53;;
16957;SDS011;8595;52.542;11.974;2022-07-29T00:38:51;5.53;;;3.78;;
16957;SDS011;8595;52.542;11.974;2022-07-29T00:41:19;7.93;;;3.70;;
16957;SDS011;8595;52.542;11.974;2022-07-29T00:43:46;5.82;;;3.55;;
16957;SDS011;8595;52.542;11.974;2022-07-29T00:46:12;5.28;;;3.53;;
16957;SDS011;8595;52.542;11.974;2022-07-29T00:48:39;7.50;;;4.05;;
16957;SDS011;8595;52.542;11.974;2022-07-29T00:51:06;5.85;;;3.88;;
16957;SDS011;8595;52.542;11.974;2022-07-29T00:53:35;9.80;;;3.63;;
16957;SDS011;8595;52.542;11.974;2022-07-29T00:56:03;6.30;;;3.65;;
16957;SDS011;8595;52.542;11.974;2022-07-29T00:58:30;6.18;;;3.80;;
16957;SDS011;8595;52.542;11.974;2022-07-29T01:00:57;6.45;;;4.10;;
16957;SDS011;8595;52.542;11.974;2022-07-29T01:03:24;6.22;;;4.07;;
16957;SDS011;8595;52.542;11.974;2022-07-29T01:05:51;7.45;;;4.38;;
16957;SDS011;8595;52.542;11.974;2022-07-29T01:08:19;12.65;;;4.07;;
16957;SDS011;8595;52.542;11.974;2022-07-29T01:10:46;8.32;;;3.92;;
16957;SDS011;8595;52.542;11.974;2022-07-29T01:13:16;12.38;;;3.90;;
16957;SDS011;8595;52.542;11.974;2022-07-29T01:15:44;10.52;;;4.75;;
16957;SDS011;8595;52.542;11.974;2022-07-29T01:18:16;6.63;;;4.38;;
16957;SDS011;8595;52.542;11.974;2022-07-29T01:20:53;9.00;;;3.95;;
16957;SDS011;8595;52.542;11.974;2022-07-29T01:23:45;5.32;;;3.95;;
16957;SDS011;8595;52.542;11.974;2022-07-29T01:29:13;12.75;;;4.78;;
16957;SDS011;8595;52.542;11.974;2022-07-29T01:31:48;7.00;;;4.15;;
16957;SDS011;8595;52.542;11.974;2022-07-29T01:34:21;6.75;;;4.15;;
16957;SDS011;8595;52.542;11.974;2022-07-29T01:36:51;6.40;;;4.60;;
16957;SDS011;8595;52.542;11.974;2022-07-29T01:39:24;7.03;;;4.07;;
16957;SDS011;8595;52.542;11.974;2022-07-29T01:41:56;4.95;;;4.28;;
16957;SDS011;8595;52.542;11.974;2022-07-29T01:44:31;5.45;;;3.78;;
16957;SDS011;8595;52.542;11.974;2022-07-29T01:47:02;5.03;;;4.00;;
16957;SDS011;8595;52.542;11.974;2022-07-29T01:49:35;6.47;;;4.53;;
16957;SDS011;8595;52.542;11.974;2022-07-29T01:52:06;7.70;;;4.03;;
16957;SDS011;8595;52.542;11.974;2022-07-29T01:54:37;7.60;;;4.32;;
16957;SDS011;8595;52.542;11.974;2022-07-29T01:57:08;9.20;;;4.63;;
16957;SDS011;8595;52.542;11.974;2022-07-29T01:59:38;11.38;;;4.93;;
16957;SDS011;8595;52.542;11.974;2022-07-29T02:02:07;5.65;;;4.30;;
16957;SDS011;8595;52.542;11.974;2022-07-29T02:04:35;11.30;;;4.95;;
16957;SDS011;8595;52.542;11.974;2022-07-29T02:07:06;8.63;;;4.82;;
16957;SDS011;8595;52.542;11.974;2022-07-29T02:09:36;10.45;;;4.60;;
16957;SDS011;8595;52.542;11.974;2022-07-29T02:12:04;6.60;;;4.53;;
16957;SDS011;8595;52.542;11.974;2022-07-29T02:14:33;7.57;;;4.68;;
16957;SDS011;8595;52.542;11.974;2022-07-29T02:17:04;11.27;;;5.03;;
16957;SDS011;8595;52.542;11.974;2022-07-29T02:19:32;7.50;;;4.45;;
16957;SDS011;8595;52.542;11.974;2022-07-29T02:22:00;6.07;;;4.40;;
16957;SDS011;8595;52.542;11.974;2022-07-29T02:24:28;7.75;;;4.93;;
16957;SDS011;8595;52.542;11.974;2022-07-29T02:26:56;13.30;;;5.88;;
16957;SDS011;8595;52.542;11.974;2022-07-29T02:29:25;7.38;;;5.30;;
16957;SDS011;8595;52.542;11.974;2022-07-29T02:31:54;10.15;;;6.43;;
16957;SDS011;8595;52.542;11.974;2022-07-29T02:34:24;10.60;;;6.35;;
16957;SDS011;8595;52.542;11.974;2022-07-29T02:36:52;7.55;;;6.18;;
16957;SDS011;8595;52.542;11.974;2022-07-29T02:39:21;9.68;;;5.93;;
16957;SDS011;8595;52.542;11.974;2022-07-29T02:41:50;7.22;;;5.63;;
16957;SDS011;8595;52.542;11.974;2022-07-29T02:44:19;9.65;;;5.38;;
16957;SDS011;8595;52.542;11.974;2022-07-29T02:46:49;8.20;;;4.85;;
16957;SDS011;8595;52.542;11.974;2022-07-29T02:49:20;8.13;;;4.63;;
16957;SDS011;8595;52.542;11.974;2022-07-29T02:51:54;7.70;;;4.82;;
16957;SDS011;8595;52.542;11.974;2022-07-29T02:54:26;12.23;;;5.20;;
16957;SDS011;8595;52.542;11.974;2022-07-29T02:56:58;8.75;;;5.10;;
16957;SDS011;8595;52.542;11.974;2022-07-29T02:59:27;8.70;;;5.75;;
16957;SDS011;8595;52.542;11.974;2022-07-29T03:01:57;10.32;;;4.97;;
16957;SDS011;8595;52.542;11.974;2022-07-29T03:04:27;8.50;;;4.70;;
16957;SDS011;8595;52.542;11.974;2022-07-29T03:06:56;7.20;;;4.55;;
16957;SDS011;8595;52.542;11.974;2022-07-29T03:09:25;6.97;;;4.40;;
16957;SDS011;8595;52.542;11.974;2022-07-29T03:11:55;8.43;;;4.95;;
16957;SDS011;8595;52.542;11.974;2022-07-29T03:14:23;8.98;;;5.43;;
16957;SDS011;8595;52.542;11.974;2022-07-29T03:16:51;8.65;;;4.93;;
16957;SDS011;8595;52.542;11.974;2022-07-29T03:19:19;8.23;;;5.15;;
16957;SDS011;8595;52.542;11.974;2022-07-29T03:21:47;9.40;;;4.55;;
16957;SDS011;8595;52.542;11.974;2022-07-29T03:24:24;9.57;;;4.72;;
16957;SDS011;8595;52.542;11.974;2022-07-29T03:26:51;7.38;;;4.88;;
16957;SDS011;8595;52.542;11.974;2022-07-29T03:29:18;7.38;;;4.40;;
16957;SDS011;8595;52.542;11.974;2022-07-29T03:31:45;8.90;;;4.93;;
16957;SDS011;8595;52.542;11.974;2022-07-29T03:34:12;6.68;;;4.82;;
16957;SDS011;8595;52.542;11.974;2022-07-29T03:36:39;6.07;;;4.65;;
16957;SDS011;8595;52.542;11.974;2022-07-29T03:39:07;6.68;;;4.35;;
16957;SDS011;8595;52.542;11.974;2022-07-29T03:41:35;7.03;;;4.43;;
16957;SDS011;8595;52.542;11.974;2022-07-29T03:44:04;8.35;;;5.13;;
16957;SDS011;8595;52.542;11.974;2022-07-29T03:46:33;7.03;;;4.65;;
16957;SDS011;8595;52.542;11.974;2022-07-29T03:49:02;6.32;;;5.10;;
16957;SDS011;8595;52.542;11.974;2022-07-29T03:51:33;7.13;;;4.07;;
16957;SDS011;8595;52.542;11.974;2022-07-29T03:54:02;7.65;;;4.25;;
16957;SDS011;8595;52.542;11.974;2022-07-29T03:56:32;9.43;;;4.70;;
16957;SDS011;8595;52.542;11.974;2022-07-29T03:59:03;8.38;;;4.30;;
16957;SDS011;8595;52.542;11.974;2022-07-29T04:01:30;4.65;;;4.25;;
16957;SDS011;8595;52.542;11.974;2022-07-29T04:03:59;4.72;;;4.07;;
16957;SDS011;8595;52.542;11.974;2022-07-29T04:06:27;4.93;;;3.92;;
16957;SDS011;8595;52.542;11.974;2022-07-29T04:08:54;8.40;;;4.53;;
16957;SDS011;8595;52.542;11.974;2022-07-29T04:11:20;7.50;;;4.70;;
16957;SDS011;8595;52.542;11.974;2022-07-29T04:13:48;7.50;;;4.22;;
16957;SDS011;8595;52.542;11.974;2022-07-29T04:16:15;8.38;;;4.40;;
16957;SDS011;8595;52.542;11.974;2022-07-29T04:18:42;8.20;;;4.50;;
16957;SDS011;8595;52.542;11.974;2022-07-29T04:21:08;5.22;;;3.88;;
16957;SDS011;8595;52.542;11.974;2022-07-29T04:23:35;6.40;;;4.38;;
16957;SDS011;8595;52.542;11.974;2022-07-29T04:26:01;6.13;;;4.40;;
16957;SDS011;8595;52.542;11.974;2022-07-29T04:28:28;9.80;;;4.68;;
16957;SDS011;8595;52.542;11.974;2022-07-29T04:30:56;7.80;;;4.15;;
16957;SDS011;8595;52.542;11.974;2022-07-29T04:33:23;6.20;;;4.38;;
16957;SDS011;8595;52.542;11.974;2022-07-29T04:35:50;5.72;;;3.70;;
16957;SDS011;8595;52.542;11.974;2022-07-29T04:38:17;6.55;;;4.05;;
16957;SDS011;8595;52.542;11.974;2022-07-29T04:40:43;4.60;;;3.63;;
16957;SDS011;8595;52.542;11.974;2022-07-29T04:43:10;6.25;;;3.90;;
16957;SDS011;8595;52.542;11.974;2022-07-29T04:45:37;6.30;;;3.65;;
16957;SDS011;8595;52.542;11.974;2022-07-29T04:48:05;6.32;;;4.70;;
16957;SDS011;8595;52.542;11.974;2022-07-29T04:50:32;5.63;;;4.15;;
16957;SDS011;8595;52.542;11.974;2022-07-29T04:52:58;7.80;;;4.35;;
16957;SDS011;8595;52.542;11.974;2022-07-29T04:55:25;9.98;;;4.43;;
16957;SDS011;8595;52.542;11.974;2022-07-29T04:57:52;5.55;;;4.00;;
16957;SDS011;8595;52.542;11.974;2022-07-29T05:00:18;5.82;;;3.70;;
16957;SDS011;8595;52.542;11.974;2022-07-29T05:02:45;6.88;;;4.30;;
16957;SDS011;8595;52.542;11.974;2022-07-29T05:05:13;7.43;;;3.80;;
16957;SDS011;8595;52.542;11.974;2022-07-29T05:07:40;5.85;;;4.03;;
16957;SDS011;8595;52.542;11.974;2022-07-29T05:10:07;7.72;;;4.18;;
16957;SDS011;8595;52.542;11.974;2022-07-29T05:12:34;8.30;;;4.18;;
16957;SDS011;8595;52.542;11.974;2022-07-29T05:15:01;7.53;;;4.03;;
16957;SDS011;8595;52.542;11.974;2022-07-29T05:17:28;8.18;;;3.80;;
16957;SDS011;8595;52.542;11.974;2022-07-29T05:19:57;4.82;;;3.78;;
16957;SDS011;8595;52.542;11.974;2022-07-29T05:22:25;5.32;;;3.95;;
16957;SDS011;8595;52.542;11.974;2022-07-29T05:24:52;7.50;;;3.50;;
16957;SDS011;8595;52.542;11.974;2022-07-29T05:27:19;7.50;;;3.95;;
16957;SDS011;8595;52.542;11.974;2022-07-29T05:29:45;5.25;;;3.67;;
16957;SDS011;8595;52.542;11.974;2022-07-29T05:32:12;6.00;;;3.53;;
16957;SDS011;8595;52.542;11.974;2022-07-29T05:34:39;7.93;;;3.88;;
16957;SDS011;8595;52.542;11.974;2022-07-29T05:37:07;5.63;;;3.40;;
16957;SDS011;8595;52.542;11.974;2022-07-29T05:39:35;8.32;;;3.20;;
16957;SDS011;8595;52.542;11.974;2022-07-29T05:42:02;6.15;;;3.53;;
16957;SDS011;8595;52.542;11.974;2022-07-29T05:44:29;7.28;;;3.60;;
16957;SDS011;8595;52.542;11.974;2022-07-29T05:46:55;11.13;;;3.65;;
16957;SDS011;8595;52.542;11.974;2022-07-29T05:49:22;6.85;;;4.00;;
16957;SDS011;8595;52.542;11.974;2022-07-29T05:51:49;7.10;;;3.67;;
16957;SDS011;8595;52.542;11.974;2022-07-29T05:54:15;5.47;;;3.55;;
16957;SDS011;8595;52.542;11.974;2022-07-29T05:56:43;8.68;;;3.67;;
16957;SDS011;8595;52.542;11.974;2022-07-29T05:59:10;6.65;;;3.65;;
16957;SDS011;8595;52.542;11.974;2022-07-29T06:01:37;5.53;;;3.55;;
16957;SDS011;8595;52.542;11.974;2022-07-29T06:04:05;6.03;;;3.88;;
16957;SDS011;8595;52.542;11.974;2022-07-29T06:06:31;5.65;;;3.55;;
16957;SDS011;8595;52.542;11.974;2022-07-29T06:08:59;7.78;;;3.80;;
16957;SDS011;8595;52.542;11.974;2022-07-29T06:11:26;7.07;;;3.47;;
16957;SDS011;8595;52.542;11.974;2022-07-29T06:13:54;7.10;;;4.85;;
16957;SDS011;8595;52.542;11.974;2022-07-29T06:16:21;7.50;;;4.20;;
16957;SDS011;8595;52.542;11.974;2022-07-29T06:18:47;6.00;;;3.88;;
16957;SDS011;8595;52.542;11.974;2022-07-29T06:21:14;8.18;;;4.22;;
16957;SDS011;8595;52.542;11.974;2022-07-29T06:23:41;4.45;;;3.60;;
16957;SDS011;8595;52.542;11.974;2022-07-29T06:26:08;8.75;;;3.40;;
16957;SDS011;8595;52.542;11.974;2022-07-29T06:28:35;6.38;;;3.25;;
16957;SDS011;8595;52.542;11.974;2022-07-29T06:31:03;4.82;;;3.60;;
16957;SDS011;8595;52.542;11.974;2022-07-29T06:33:31;6.60;;;3.63;;
16957;SDS011;8595;52.542;11.974;2022-07-29T06:35:58;4.50;;;2.75;;
16957;SDS011;8595;52.542;11.974;2022-07-29T06:38:25;5.95;;;3.40;;
16957;SDS011;8595;52.542;11.974;2022-07-29T06:40:52;4.38;;;3.13;;
16957;SDS011;8595;52.542;11.974;2022-07-29T06:43:29;3.97;;;3.00;;
16957;SDS011;8595;52.542;11.974;2022-07-29T06:45:59;3.95;;;3.53;;
16957;SDS011;8595;52.542;11.974;2022-07-29T06:48:27;13.40;;;3.83;;
16957;SDS011;8595;52.542;11.974;2022-07-29T06:50:54;4.65;;;3.35;;
16957;SDS011;8595;52.542;11.974;2022-07-29T06:53:22;8.32;;;4.47;;
16957;SDS011;8595;52.542;11.974;2022-07-29T06:55:49;8.50;;;3.33;;
16957;SDS011;8595;52.542;11.974;2022-07-29T06:58:16;7.22;;;3.42;;
16957;SDS011;8595;52.542;11.974;2022-07-29T07:00:45;5.03;;;3.38;;
16957;SDS011;8595;52.542;11.974;2022-07-29T07:03:12;6.93;;;3.38;;
16957;SDS011;8595;52.542;11.974;2022-07-29T07:05:40;5.57;;;3.47;;
16957;SDS011;8595;52.542;11.974;2022-07-29T07:08:07;7.72;;;3.67;;
16957;SDS011;8595;52.542;11.974;2022-07-29T07:10:34;5.88;;;3.33;;
16957;SDS011;8595;52.542;11.974;2022-07-29T07:13:01;6.25;;;3.22;;
16957;SDS011;8595;52.542;11.974;2022-07-29T07:15:27;5.30;;;3.45;;
16957;SDS011;8595;52.542;11.974;2022-07-29T07:17:55;6.03;;;3.35;;
16957;SDS011;8595;52.542;11.974;2022-07-29T07:20:22;4.70;;;3.08;;
16957;SDS011;8595;52.542;11.974;2022-07-29T07:22:50;5.70;;;4.15;;
16957;SDS011;8595;52.542;11.974;2022-07-29T07:25:17;6.03;;;4.40;;
16957;SDS011;8595;52.542;11.974;2022-07-29T07:27:44;6.85;;;3.47;;
16957;SDS011;8595;52.542;11.974;2022-07-29T07:30:11;4.72;;;3.17;;
16957;SDS011;8595;52.542;11.974;2022-07-29T07:32:39;5.53;;;3.30;;
16957;SDS011;8595;52.542;11.974;2022-07-29T07:35:06;8.65;;;3.13;;
16957;SDS011;8595;52.542;11.974;2022-07-29T07:37:34;6.40;;;3.20;;
16957;SDS011;8595;52.542;11.974;2022-07-29T07:40:03;4.05;;;3.03;;
16957;SDS011;8595;52.542;11.974;2022-07-29T07:42:31;8.15;;;3.35;;
16957;SDS011;8595;52.542;11.974;2022-07-29T07:44:58;5.47;;;3.38;;
16957;SDS011;8595;52.542;11.974;2022-07-29T07:47:24;11.07;;;3.40;;
16957;SDS011;8595;52.542;11.974;2022-07-29T07:49:51;6.18;;;3.25;;
16957;SDS011;8595;52.542;11.974;2022-07-29T07:52:19;4.20;;;3.03;;
16957;SDS011;8595;52.542;11.974;2022-07-29T07:54:46;5.10;;;2.97;;
16957;SDS011;8595;52.542;11.974;2022-07-29T07:57:15;3.78;;;3.00;;
16957;SDS011;8595;52.542;11.974;2022-07-29T07:59:42;5.63;;;3.25;;
16957;SDS011;8595;52.542;11.974;2022-07-29T08:02:09;6.07;;;2.65;;
16957;SDS011;8595;52.542;11.974;2022-07-29T08:04:36;5.10;;;2.70;;
16957;SDS011;8595;52.542;11.974;2022-07-29T08:07:05;3.13;;;2.67;;
16957;SDS011;8595;52.542;11.974;2022-07-29T08:09:32;3.88;;;3.10;;
16957;SDS011;8595;52.542;11.974;2022-07-29T08:11:59;5.03;;;3.00;;
16957;SDS011;8595;52.542;11.974;2022-07-29T08:14:28;4.15;;;2.95;;
16957;SDS011;8595;52.542;11.974;2022-07-29T08:16:55;4.93;;;3.20;;
16957;SDS011;8595;52.542;11.974;2022-07-29T08:19:22;7.35;;;3.28;;
16957;SDS011;8595;52.542;11.974;2022-07-29T08:21:49;3.35;;;2.88;;
16957;SDS011;8595;52.542;11.974;2022-07-29T08:24:17;5.80;;;2.83;;
16957;SDS011;8595;52.542;11.974;2022-07-29T08:27:01;10.35;;;3.88;;
16957;SDS011;8595;52.542;11.974;2022-07-29T08:29:30;5.22;;;3.25;;
16957;SDS011;8595;52.542;11.974;2022-07-29T08:31:56;4.03;;;2.88;;
16957;SDS011;8595;52.542;11.974;2022-07-29T08:34:23;7.90;;;3.40;;
16957;SDS011;8595;52.542;11.974;2022-07-29T08:36:50;9.38;;;3.40;;
16957;SDS011;8595;52.542;11.974;2022-07-29T08:39:17;6.03;;;3.22;;
16957;SDS011;8595;52.542;11.974;2022-07-29T08:41:43;7.32;;;3.20;;
16957;SDS011;8595;52.542;11.974;2022-07-29T08:44:10;9.38;;;3.15;;
16957;SDS011;8595;52.542;11.974;2022-07-29T08:46:38;3.97;;;3.35;;
16957;SDS011;8595;52.542;11.974;2022-07-29T08:49:05;4.20;;;3.45;;
16957;SDS011;8595;52.542;11.974;2022-07-29T08:51:33;7.15;;;3.22;;
16957;SDS011;8595;52.542;11.974;2022-07-29T08:54:02;12.38;;;3.47;;
16957;SDS011;8595;52.542;11.974;2022-07-29T08:56:29;4.28;;;2.78;;
16957;SDS011;8595;52.542;11.974;2022-07-29T08:58:57;3.17;;;2.75;;
16957;SDS011;8595;52.542;11.974;2022-07-29T09:01:25;11.65;;;4.55;;
16957;SDS011;8595;52.542;11.974;2022-07-29T09:03:56;5.45;;;3.10;;
16957;SDS011;8595;52.542;11.974;2022-07-29T09:06:26;5.97;;;3.10;;
16957;SDS011;8595;52.542;11.974;2022-07-29T09:08:58;7.75;;;3.17;;
16957;SDS011;8595;52.542;11.974;2022-07-29T09:11:25;4.60;;;2.65;;
16957;SDS011;8595;52.542;11.974;2022-07-29T09:13:52;4.20;;;2.88;;
16957;SDS011;8595;52.542;11.974;2022-07-29T09:16:19;7.28;;;3.33;;
16957;SDS011;8595;52.542;11.974;2022-07-29T09:18:46;4.53;;;2.95;;
16957;SDS011;8595;52.542;11.974;2022-07-29T09:21:14;5.45;;;3.40;;
16957;SDS011;8595;52.542;11.974;2022-07-29T09:24:01;7.93;;;3.83;;
16957;SDS011;8595;52.542;11.974;2022-07-29T09:26:29;6.93;;;3.22;;
16957;SDS011;8595;52.542;11.974;2022-07-29T09:28:56;4.05;;;2.78;;
16957;SDS011;8595;52.542;11.974;2022-07-29T09:31:27;7.72;;;2.60;;
16957;SDS011;8595;52.542;11.974;2022-07-29T09:33:59;7.50;;;2.55;;
16957;SDS011;8595;52.542;11.974;2022-07-29T09:36:27;6.00;;;2.55;;
16957;SDS011;8595;52.542;11.974;2022-07-29T09:38:57;4.75;;;2.72;;
16957;SDS011;8595;52.542;11.974;2022-07-29T09:41:25;7.95;;;3.33;;
16957;SDS011;8595;52.542;11.974;2022-07-29T09:43:53;5.35;;;2.25;;
16957;SDS011;8595;52.542;11.974;2022-07-29T09:46:20;3.92;;;2.20;;
16957;SDS011;8595;52.542;11.974;2022-07-29T09:51:33;4.40;;;2.33;;
16957;SDS011;8595;52.542;11.974;2022-07-29T09:54:00;8.20;;;2.60;;
16957;SDS011;8595;52.542;11.974;2022-07-29T09:56:38;4.82;;;2.42;;
16957;SDS011;8595;52.542;11.974;2022-07-29T09:59:06;6.88;;;2.70;;
16957;SDS011;8595;52.542;11.974;2022-07-29T10:01:33;5.18;;;2.25;;
16957;SDS011;8595;52.542;11.974;2022-07-29T10:04:00;6.63;;;2.60;;
16957;SDS011;8595;52.542;11.974;2022-07-29T10:06:27;9.55;;;3.13;;
16957;SDS011;8595;52.542;11.974;2022-07-29T10:09:02;5.93;;;2.55;;
16957;SDS011;8595;52.542;11.974;2022-07-29T10:11:33;4.72;;;2.22;;
16957;SDS011;8595;52.542;11.974;2022-07-29T10:14:00;7.82;;;2.60;;
16957;SDS011;8595;52.542;11.974;2022-07-29T10:16:28;10.25;;;3.03;;
16957;SDS011;8595;52.542;11.974;2022-07-29T10:18:57;8.75;;;2.80;;
16957;SDS011;8595;52.542;11.974;2022-07-29T10:21:24;9.40;;;2.55;;
16957;SDS011;8595;52.542;11.974;2022-07-29T10:23:52;5.40;;;2.28;;
16957;SDS011;8595;52.542;11.974;2022-07-29T10:26:20;5.97;;;2.40;;
16957;SDS011;8595;52.542;11.974;2022-07-29T10:28:47;6.57;;;2.47;;
16957;SDS011;8595;52.542;11.974;2022-07-29T10:31:15;6.15;;;2.50;;
16957;SDS011;8595;52.542;11.974;2022-07-29T10:33:51;5.00;;;2.30;;
16957;SDS011;8595;52.542;11.974;2022-07-29T10:36:32;4.90;;;2.83;;
16957;SDS011;8595;52.542;11.974;2022-07-29T10:39:14;9.13;;;2.55;;
16957;SDS011;8595;52.542;11.974;2022-07-29T10:41:59;5.93;;;2.50;;
16957;SDS011;8595;52.542;11.974;2022-07-29T10:44:35;3.83;;;2.08;;
16957;SDS011;8595;52.542;11.974;2022-07-29T10:47:06;9.88;;;2.63;;
16957;SDS011;8595;52.542;11.974;2022-07-29T10:49:32;8.10;;;2.35;;
16957;SDS011;8595;52.542;11.974;2022-07-29T10:52:00;5.20;;;2.45;;
16957;SDS011;8595;52.542;11.974;2022-07-29T10:54:36;8.05;;;2.20;;
16957;SDS011;8595;52.542;11.974;2022-07-29T10:57:14;5.53;;;2.47;;
16957;SDS011;8595;52.542;11.974;2022-07-29T10:59:42;4.80;;;2.38;;
16957;SDS011;8595;52.542;11.974;2022-07-29T11:05:08;6.38;;;2.63;;
16957;SDS011;8595;52.542;11.974;2022-07-29T11:07:38;7.43;;;2.30;;
16957;SDS011;8595;52.542;11.974;2022-07-29T11:10:25;5.40;;;1.88;;
16957;SDS011;8595;52.542;11.974;2022-07-29T11:12:53;4.68;;;2.03;;
16957;SDS011;8595;52.542;11.974;2022-07-29T11:15:21;9.88;;;2.22;;
16957;SDS011;8595;52.542;11.974;2022-07-29T11:18:07;4.80;;;2.05;;
16957;SDS011;8595;52.542;11.974;2022-07-29T11:20:38;5.22;;;2.40;;
16957;SDS011;8595;52.542;11.974;2022-07-29T11:23:19;4.20;;;1.95;;
16957;SDS011;8595;52.542;11.974;2022-07-29T11:28:50;2.88;;;1.63;;
16957;SDS011;8595;52.542;11.974;2022-07-29T11:31:33;4.60;;;1.77;;
16957;SDS011;8595;52.542;11.974;2022-07-29T11:34:15;5.22;;;1.92;;
16957;SDS011;8595;52.542;11.974;2022-07-29T11:39:45;2.85;;;1.77;;
16957;SDS011;8595;52.542;11.974;2022-07-29T11:45:05;3.40;;;2.03;;
16957;SDS011;8595;52.542;11.974;2022-07-29T11:47:34;6.50;;;1.80;;
16957;SDS011;8595;52.542;11.974;2022-07-29T11:50:03;4.60;;;1.70;;
16957;SDS011;8595;52.542;11.974;2022-07-29T11:52:32;5.05;;;1.83;;
16957;SDS011;8595;52.542;11.974;2022-07-29T11:55:02;10.30;;;2.25;;
16957;SDS011;8595;52.542;11.974;2022-07-29T11:57:31;3.90;;;1.80;;
16957;SDS011;8595;52.542;11.974;2022-07-29T12:00:00;4.80;;;2.10;;
16957;SDS011;8595;52.542;11.974;2022-07-29T12:02:39;5.57;;;1.80;;
16957;SDS011;8595;52.542;11.974;2022-07-29T12:05:07;3.53;;;1.60;;
16957;SDS011;8595;52.542;11.974;2022-07-29T12:07:37;4.00;;;2.10;;
16957;SDS011;8595;52.542;11.974;2022-07-29T12:10:06;6.70;;;1.85;;
16957;SDS011;8595;52.542;11.974;2022-07-29T12:12:34;3.38;;;1.80;;
16957;SDS011;8595;52.542;11.974;2022-07-29T12:15:11;9.68;;;2.13;;
16957;SDS011;8595;52.542;11.974;2022-07-29T12:17:47;4.47;;;1.77;;
16957;SDS011;8595;52.542;11.974;2022-07-29T12:20:21;6.55;;;2.30;;
16957;SDS011;8595;52.542;11.974;2022-07-29T12:22:49;3.30;;;1.95;;
16957;SDS011;8595;52.542;11.974;2022-07-29T12:25:18;7.22;;;2.08;;
16957;SDS011;8595;52.542;11.974;2022-07-29T12:27:46;4.10;;;1.88;;
16957;SDS011;8595;52.542;11.974;2022-07-29T12:30:13;3.47;;;2.15;;
16957;SDS011;8595;52.542;11.974;2022-07-29T12:32:42;7.95;;;1.80;;
16957;SDS011;8595;52.542;11.974;2022-07-29T12:35:12;3.58;;;1.75;;
16957;SDS011;8595;52.542;11.974;2022-07-29T12:37:42;6.22;;;2.05;;
16957;SDS011;8595;52.542;11.974;2022-07-29T12:40:11;5.88;;;1.75;;
16957;SDS011;8595;52.542;11.974;2022-07-29T12:42:41;4.18;;;1.83;;
16957;SDS011;8595;52.542;11.974;2022-07-29T12:45:29;3.65;;;1.70;;
16957;SDS011;8595;52.542;11.974;2022-07-29T12:47:57;4.00;;;1.70;;
16957;SDS011;8595;52.542;11.974;2022-07-29T12:50:24;4.72;;;2.40;;
16957;SDS011;8595;52.542;11.974;2022-07-29T12:52:50;3.35;;;1.75;;
16957;SDS011;8595;52.542;11.974;2022-07-29T12:58:09;3.50;;;1.90;;
16957;SDS011;8595;52.542;11.974;2022-07-29T13:00:37;13.20;;;2.33;;
16957;SDS011;8595;52.542;11.974;2022-07-29T13:03:04;5.80;;;2.67;;
16957;SDS011;8595;52.542;11.974;2022-07-29T13:05:40;7.43;;;2.10;;
16957;SDS011;8595;52.542;11.974;2022-07-29T13:08:12;2.47;;;1.83;;
16957;SDS011;8595;52.542;11.974;2022-07-29T13:10:40;7.25;;;2.20;;
16957;SDS011;8595;52.542;11.974;2022-07-29T13:13:07;1.92;;;1.60;;
16957;SDS011;8595;52.542;11.974;2022-07-29T13:15:35;3.92;;;2.10;;
16957;SDS011;8595;52.542;11.974;2022-07-29T13:18:05;6.35;;;1.80;;
16957;SDS011;8595;52.542;11.974;2022-07-29T13:20:52;8.02;;;2.15;;
16957;SDS011;8595;52.542;11.974;2022-07-29T13:23:18;5.80;;;2.05;;
16957;SDS011;8595;52.542;11.974;2022-07-29T13:25:45;4.50;;;1.60;;
16957;SDS011;8595;52.542;11.974;2022-07-29T13:28:12;6.72;;;2.47;;
16957;SDS011;8595;52.542;11.974;2022-07-29T13:30:40;4.88;;;2.20;;
16957;SDS011;8595;52.542;11.974;2022-07-29T13:33:07;4.65;;;2.33;;
16957;SDS011;8595;52.542;11.974;2022-07-29T13:35:33;2.95;;;2.20;;
16957;SDS011;8595;52.542;11.974;2022-07-29T13:38:00;5.05;;;2.10;;
16957;SDS011;8595;52.542;11.974;2022-07-29T13:40:27;7.65;;;1.90;;
16957;SDS011;8595;52.542;11.974;2022-07-29T13:42:55;4.18;;;2.08;;
16957;SDS011;8595;52.542;11.974;2022-07-29T13:45:21;6.60;;;1.98;;
16957;SDS011;8595;52.542;11.974;2022-07-29T13:47:50;3.03;;;2.10;;
16957;SDS011;8595;52.542;11.974;2022-07-29T13:50:16;7.80;;;2.30;;
16957;SDS011;8595;52.542;11.974;2022-07-29T13:52:43;4.30;;;2.40;;
16957;SDS011;8595;52.542;11.974;2022-07-29T13:55:12;6.93;;;2.85;;
16957;SDS011;8595;52.542;11.974;2022-07-29T13:57:39;12.13;;;3.42;;
16957;SDS011;8595;52.542;11.974;2022-07-29T14:00:07;6.93;;;2.50;;
16957;SDS011;8595;52.542;11.974;2022-07-29T14:02:35;3.10;;;2.30;;
16957;SDS011;8595;52.542;11.974;2022-07-29T14:05:05;5.25;;;2.15;;
16957;SDS011;8595;52.542;11.974;2022-07-29T14:07:33;3.63;;;2.28;;
16957;SDS011;8595;52.542;11.974;2022-07-29T14:09:59;6.07;;;2.47;;
16957;SDS011;8595;52.542;11.974;2022-07-29T14:12:26;4.72;;;2.33;;
16957;SDS011;8595;52.542;11.974;2022-07-29T14:14:53;8.77;;;2.75;;
16957;SDS011;8595;52.542;11.974;2022-07-29T14:17:19;8.88;;;2.08;;
16957;SDS011;8595;52.542;11.974;2022-07-29T14:19:46;7.38;;;2.17;;
16957;SDS011;8595;52.542;11.974;2022-07-29T14:22:14;3.28;;;2.40;;
16957;SDS011;8595;52.542;11.974;2022-07-29T14:24:44;5.10;;;2.40;;
16957;SDS011;8595;52.542;11.974;2022-07-29T14:27:11;5.90;;;2.30;;
16957;SDS011;8595;52.542;11.974;2022-07-29T14:29:38;3.78;;;2.50;;
16957;SDS011;8595;52.542;11.974;2022-07-29T14:32:04;5.10;;;2.78;;
16957;SDS011;8595;52.542;11.974;2022-07-29T14:34:33;6.55;;;1.92;;
16957;SDS011;8595;52.542;11.974;2022-07-29T14:37:00;8.32;;;2.25;;
16957;SDS011;8595;52.542;11.974;2022-07-29T14:39:29;4.63;;;2.30;;
16957;SDS011;8595;52.542;11.974;2022-07-29T14:41:55;3.92;;;2.42;;
16957;SDS011;8595;52.542;11.974;2022-07-29T14:44:22;3.45;;;2.75;;
16957;SDS011;8595;52.542;11.974;2022-07-29T14:46:54;8.07;;;2.75;;
16957;SDS011;8595;52.542;11.974;2022-07-29T14:49:20;2.67;;;2.15;;
16957;SDS011;8595;52.542;11.974;2022-07-29T14:51:47;5.93;;;2.50;;
16957;SDS011;8595;52.542;11.974;2022-07-29T14:54:15;3.55;;;2.35;;
16957;SDS011;8595;52.542;11.974;2022-07-29T14:56:43;4.25;;;2.35;;
16957;SDS011;8595;52.542;11.974;2022-07-29T14:59:10;3.58;;;2.50;;
16957;SDS011;8595;52.542;11.974;2022-07-29T15:01:37;5.82;;;2.65;;
16957;SDS011;8595;52.542;11.974;2022-07-29T15:04:04;7.38;;;2.67;;
16957;SDS011;8595;52.542;11.974;2022-07-29T15:06:31;3.58;;;2.45;;
16957;SDS011;8595;52.542;11.974;2022-07-29T15:08:59;8.13;;;2.88;;
16957;SDS011;8595;52.542;11.974;2022-07-29T15:11:26;2.97;;;2.40;;
16957;SDS011;8595;52.542;11.974;2022-07-29T15:13:54;12.13;;;3.08;;
16957;SDS011;8595;52.542;11.974;2022-07-29T15:16:21;8.80;;;4.30;;
16957;SDS011;8595;52.542;11.974;2022-07-29T15:18:49;7.65;;;3.90;;